Time;durP1;ratioP1;P1;durP2;ratioP2;P2;SDS_P1;SDS_P2;PMS_P1;PMS_P2;Temp;Humidity;BMP_temperature;BMP_pressure;BME280_temperature;BME280_humidity;BME280_pressure;Samples;Min_cycle;Max_cycle;Signal;HPM_P1;HPM_P2
2022/07/20 00:01:37;;;;;;;0.50;0.40;;;;;;;19.27;82.76;95832.66;5134590;27;20450;-60
2022/07/20 00:04:06;;;;;;;0.50;0.30;;;;;;;19.57;81.14;95831.84;5134391;27;20523;-60
2022/07/20 00:06:34;;;;;;;3.80;0.30;;;;;;;19.48;79.77;95833.69;5134502;27;20966;-60
2022/07/20 00:11:50;;;;;;;0.40;0.20;;;;;;;19.36;81.21;95838.06;5134241;27;20465;-60
2022/07/20 00:14:18;;;;;;;0.40;0.30;;;;;;;19.39;81.05;95837.47;5133818;27;20488;-60
2022/07/20 00:16:46;;;;;;;0.40;0.30;;;;;;;19.19;83.01;95835.31;5132653;27;20565;-60
2022/07/20 00:19:15;;;;;;;0.40;0.20;;;;;;;19.84;82.24;95841.53;5134321;27;20479;-60
2022/07/20 00:21:44;;;;;;;0.50;0.40;;;;;;;19.81;79.36;95807.19;5134087;27;20946;-60
2022/07/20 00:24:14;;;;;;;0.40;0.20;;;;;;;20.37;73.25;95840.44;5134288;27;20498;-60
2022/07/20 00:26:42;;;;;;;0.40;0.20;;;;;;;19.80;78.41;95843.28;5133951;27;20509;-60
2022/07/20 00:29:10;;;;;;;0.40;0.30;;;;;;;19.58;81.14;95846.84;5134054;27;20431;-60
2022/07/20 00:31:39;;;;;;;1.13;1.13;;;;;;;20.02;77.33;95842.31;5133824;27;20517;-60
2022/07/20 00:34:07;;;;;;;0.40;0.27;;;;;;;19.74;83.46;95847.19;5134242;27;20415;-60
2022/07/20 00:36:36;;;;;;;0.40;0.30;;;;;;;19.64;87.58;95852.88;5133854;27;20418;-59
2022/07/20 00:39:04;;;;;;;0.40;0.30;;;;;;;19.55;88.99;95847.50;5133788;27;20514;-60
2022/07/20 00:41:34;;;;;;;0.50;0.40;;;;;;;20.18;84.81;95846.94;5133757;27;20423;-60
2022/07/20 00:44:06;;;;;;;0.40;0.20;;;;;;;20.47;79.62;95845.50;5133602;27;20569;-60
2022/07/20 00:46:36;;;;;;;0.40;0.20;;;;;;;20.52;78.12;95839.94;5133998;27;20970;-60
2022/07/20 00:49:06;;;;;;;0.40;0.37;;;;;;;19.89;77.09;95841.38;5133712;27;20430;-60
2022/07/20 00:51:35;;;;;;;0.40;0.30;;;;;;;19.77;81.58;95835.81;5133384;27;20509;-60
2022/07/20 00:54:05;;;;;;;0.40;0.20;;;;;;;20.11;79.86;95830.44;5133596;27;20476;-59
2022/07/20 00:56:36;;;;;;;0.40;0.20;;;;;;;20.38;79.18;95831.28;5133640;27;20458;-59
2022/07/20 00:59:06;;;;;;;0.40;0.20;;;;;;;20.11;75.95;95795.47;5133436;27;20971;-59
2022/07/20 01:01:34;;;;;;;0.40;0.20;;;;;;;19.28;83.10;95836.94;5133201;27;20501;-59
2022/07/20 01:04:04;;;;;;;0.40;0.20;;;;;;;19.56;86.85;95834.81;5133544;27;20458;-59
2022/07/20 01:06:32;;;;;;;0.40;0.30;;;;;;;20.14;83.75;95829.03;5133184;27;20427;-59
2022/07/20 01:09:00;;;;;;;0.40;0.30;;;;;;;20.45;78.66;95834.28;5133166;27;20430;-59
2022/07/20 01:11:29;;;;;;;1.17;1.07;;;;;;;20.66;77.18;95837.88;5132991;27;20940;-59
2022/07/20 01:14:06;;;;;;;0.40;0.20;;;;;;;20.72;73.65;95834.69;5133115;27;20522;-59
2022/07/20 01:16:35;;;;;;;0.40;0.20;;;;;;;20.48;73.87;95833.63;5132922;27;20473;-59
2022/07/20 01:19:04;;;;;;;0.40;0.30;;;;;;;19.84;77.59;95830.75;5132454;27;20437;-59
2022/07/20 01:21:40;;;;;;;0.40;0.20;;;;;;;20.18;77.12;95830.78;5132149;27;20441;-59
2022/07/20 01:24:10;;;;;;;0.57;0.47;;;;;;;20.60;76.88;95841.84;5133133;27;20477;-59
2022/07/20 01:26:40;;;;;;;0.70;0.40;;;;;;;20.40;76.61;95839.81;5132925;27;20517;-59
2022/07/20 01:29:09;;;;;;;0.40;0.20;;;;;;;20.49;77.50;95833.31;5132451;27;20529;-59
2022/07/20 01:31:37;;;;;;;0.40;0.30;;;;;;;20.05;77.84;95837.13;5132914;27;20442;-59
2022/07/20 01:34:06;;;;;;;0.50;0.30;;;;;;;20.15;78.75;95827.94;5132797;27;20419;-59
2022/07/20 01:36:36;;;;;;;0.50;0.50;;;;;;;20.15;76.51;95836.81;5132858;27;20419;-59
2022/07/20 01:39:04;;;;;;;0.40;0.30;;;;;;;19.98;77.98;95834.13;5133220;27;20493;-59
2022/07/20 01:41:33;;;;;;;0.60;0.40;;;;;;;19.43;78.88;95835.75;5139022;27;20419;-59
2022/07/20 01:44:01;;;;;;;0.40;0.30;;;;;;;18.89;84.07;95837.72;5132693;28;20942;-59
2022/07/20 01:46:30;;;;;;;0.40;0.30;;;;;;;18.71;86.53;95843.31;5132752;28;20526;-59
2022/07/20 01:48:58;;;;;;;0.50;0.30;;;;;;;18.69;87.76;95845.50;5132925;28;20932;-59
2022/07/20 01:51:27;;;;;;;0.40;0.27;;;;;;;18.08;90.59;95782.56;5132640;28;20460;-59
2022/07/20 01:53:56;;;;;;;0.40;0.20;;;;;;;19.20;94.37;95850.34;5132025;28;20499;-59
2022/07/20 01:56:25;;;;;;;0.50;0.30;;;;;;;19.74;83.93;95841.03;5132695;28;20463;-59
2022/07/20 01:58:53;;;;;;;0.40;0.20;;;;;;;19.81;79.95;95796.41;5131623;28;20486;-59
2022/07/20 02:01:22;;;;;;;0.40;0.20;;;;;;;20.29;76.72;95843.97;5132833;28;20456;-59
2022/07/20 02:03:51;;;;;;;0.40;0.20;;;;;;;20.46;76.21;95846.63;5132890;28;20487;-59
2022/07/20 02:06:20;;;;;;;0.40;0.30;;;;;;;19.91;76.11;95849.91;5132684;28;20539;-59
2022/07/20 02:08:48;;;;;;;0.40;0.30;;;;;;;19.53;80.04;95851.59;5131621;28;20497;-59
2022/07/20 02:11:18;;;;;;;0.40;0.30;;;;;;;18.94;92.45;95858.28;5132349;28;20458;-59
2022/07/20 02:13:47;;;;;;;0.40;0.20;;;;;;;19.10;92.02;95784.22;5131808;28;20430;-58
2022/07/20 02:16:15;;;;;;;0.47;0.30;;;;;;;20.04;85.84;95850.88;5132479;28;20490;-58
2022/07/20 02:18:46;;;;;;;0.40;0.20;;;;;;;20.20;81.55;95850.09;5132772;28;20434;-58
2022/07/20 02:21:16;;;;;;;0.40;0.30;;;;;;;20.26;82.52;95850.78;5132413;27;20471;-58
2022/07/20 02:23:44;;;;;;;0.40;0.30;;;;;;;18.86;90.68;95854.47;5136308;27;20446;-58
2022/07/20 02:26:13;;;;;;;0.40;0.30;;;;;;;18.33;93.33;95838.31;5136474;27;20474;-58
2022/07/20 02:28:44;;;;;;;0.40;0.30;;;;;;;18.50;94.03;95840.34;5135841;27;20448;-58
2022/07/20 02:31:13;;;;;;;0.40;0.30;;;;;;;18.58;94.32;95841.50;5135979;27;20435;-58
2022/07/20 02:33:42;;;;;;;0.50;0.30;;;;;;;19.08;91.12;95839.38;5135744;27;20905;-58
2022/07/20 02:36:10;;;;;;;0.40;0.20;;;;;;;19.28;84.58;95798.50;5136092;27;20521;-58
2022/07/20 02:38:39;;;;;;;0.50;0.30;;;;;;;19.88;82.33;95839.81;5136133;27;20473;-58
2022/07/20 02:41:08;;;;;;;0.40;0.30;;;;;;;20.08;78.44;95844.56;5136096;27;20962;-58
2022/07/20 02:43:37;;;;;;;0.40;0.30;;;;;;;20.26;80.53;95848.06;5136419;27;20860;-58
2022/07/20 02:46:07;;;;;;;0.40;0.20;;;;;;;20.37;80.12;95848.53;5135871;27;20504;-58
2022/07/20 02:48:35;;;;;;;0.40;0.20;;;;;;;19.91;75.92;95843.75;5136260;27;20517;-58
2022/07/20 02:51:04;;;;;;;0.50;0.40;;;;;;;20.20;78.80;95858.19;5135808;27;20473;-58
2022/07/20 02:53:32;;;;;;;0.40;0.20;;;;;;;20.33;78.14;95859.16;5136209;27;20458;-58
2022/07/20 02:56:01;;;;;;;0.40;0.30;;;;;;;20.25;75.15;95846.47;5136024;27;20537;-58
2022/07/20 02:58:29;;;;;;;0.40;0.20;;;;;;;19.37;79.12;95805.53;5136018;27;20513;-58
2022/07/20 03:00:58;;;;;;;0.40;0.30;;;;;;;19.38;81.63;95866.25;5135648;27;20451;-53
2022/07/20 03:03:28;;;;;;;0.40;0.20;;;;;;;19.21;83.22;95868.84;5135924;27;20491;-54
2022/07/20 03:05:56;;;;;;;0.50;0.30;;;;;;;18.92;89.65;95872.00;5135698;27;20470;-53
2022/07/20 03:08:25;;;;;;;0.40;0.20;;;;;;;18.67;93.43;95867.28;5135581;27;20458;-53
2022/07/20 03:10:53;;;;;;;0.50;0.30;;;;;;;18.77;94.83;95867.03;5135669;27;20516;-53
2022/07/20 03:13:22;;;;;;;0.50;0.30;;;;;;;19.18;89.23;95860.59;5135701;27;20481;-54
2022/07/20 03:15:50;;;;;;;0.50;0.30;;;;;;;19.42;87.32;95874.50;5135174;27;20850;-53
2022/07/20 03:18:18;;;;;;;0.40;0.30;;;;;;;19.66;85.26;95872.19;5135624;27;20433;-53
2022/07/20 03:20:48;;;;;;;0.40;0.20;;;;;;;19.63;82.34;95870.13;5135189;27;20936;-54
2022/07/20 03:23:16;;;;;;;0.40;0.20;;;;;;;19.18;89.40;95885.56;5135482;27;20426;-53
2022/07/20 03:25:45;;;;;;;0.50;0.30;;;;;;;19.33;86.93;95882.47;5135035;27;21003;-53
2022/07/20 03:28:13;;;;;;;0.50;0.30;;;;;;;18.42;97.50;95892.03;5135012;27;20484;-53
2022/07/20 03:30:41;;;;;;;0.40;0.27;;;;;;;18.01;100.00;95896.75;5135267;27;20477;-53
2022/07/20 03:33:10;;;;;;;0.40;0.20;;;;;;;18.74;96.16;95891.84;5133265;27;20510;-53
2022/07/20 03:35:38;;;;;;;0.40;0.30;;;;;;;19.21;90.18;95879.59;5134559;27;20441;-53
2022/07/20 03:38:08;;;;;;;0.40;0.20;;;;;;;18.52;97.01;95888.38;5134837;27;20957;-54
2022/07/20 03:40:36;;;;;;;0.40;0.27;;;;;;;18.78;96.12;95886.63;5134908;27;20427;-54
2022/07/20 03:43:05;;;;;;;0.40;0.27;;;;;;;18.74;97.64;95882.97;5134715;27;20954;-54
2022/07/20 03:45:33;;;;;;;0.90;0.90;;;;;;;18.93;96.23;95891.63;5134668;27;20476;-54
2022/07/20 03:48:01;;;;;;;0.40;0.20;;;;;;;19.26;91.71;95884.81;5135044;27;20481;-54
2022/07/20 03:50:30;;;;;;;0.40;0.20;;;;;;;19.41;90.90;95883.66;5134848;27;20423;-54
2022/07/20 03:52:58;;;;;;;0.40;0.20;;;;;;;19.57;88.69;95880.25;5134506;27;20458;-54
2022/07/20 03:55:28;;;;;;;0.40;0.30;;;;;;;19.57;85.43;95882.13;5134360;27;20555;-54
2022/07/20 03:57:56;;;;;;;0.40;0.20;;;;;;;19.50;86.03;95892.56;5134476;27;20427;-53
2022/07/20 04:00:25;;;;;;;0.40;0.30;;;;;;;18.89;91.17;95898.72;5133501;27;20418;-54
2022/07/20 04:02:53;;;;;;;0.40;0.20;;;;;;;18.48;98.46;95890.84;5134388;27;20521;-53
2022/07/20 04:05:22;;;;;;;0.50;0.30;;;;;;;18.71;95.45;95886.28;5134624;27;20451;-53
2022/07/20 04:07:50;;;;;;;0.40;0.30;;;;;;;18.48;97.93;95890.84;5134425;27;20502;-53
2022/07/20 04:10:18;;;;;;;0.40;0.20;;;;;;;18.51;97.78;95895.63;5134157;27;20954;-54
2022/07/20 04:12:53;;;;;;;0.43;0.30;;;;;;;18.40;99.20;95904.97;5134510;27;20446;-53
2022/07/20 04:15:22;;;;;;;0.50;0.40;;;;;;;18.30;100.00;95899.84;5134105;27;20518;-53
2022/07/20 04:17:50;;;;;;;0.50;0.43;;;;;;;18.10;100.00;95906.47;5133886;27;20474;-53
2022/07/20 04:20:18;;;;;;;0.40;0.30;;;;;;;18.25;100.00;95916.84;5134387;27;20510;-54
2022/07/20 04:22:47;;;;;;;0.40;0.30;;;;;;;18.28;100.00;95912.75;5133900;27;21027;-54
2022/07/20 04:25:15;;;;;;;0.40;0.30;;;;;;;18.31;99.72;95912.16;5133675;27;20419;-54
2022/07/20 04:27:44;;;;;;;0.40;0.30;;;;;;;18.32;100.00;95914.53;5133802;27;20939;-54
2022/07/20 04:30:14;;;;;;;0.40;0.30;;;;;;;18.88;100.00;95913.22;5134104;27;20454;-54
2022/07/20 04:32:43;;;;;;;6.40;1.33;;;;;;;19.28;100.00;95914.06;5133824;27;20498;-54
2022/07/20 04:35:11;;;;;;;0.43;0.30;;;;;;;19.46;96.36;95911.19;5133729;27;20425;-54
2022/07/20 04:37:40;;;;;;;0.40;0.20;;;;;;;19.62;93.51;95914.25;5132928;27;20466;-54
2022/07/20 04:40:10;;;;;;;0.50;0.40;;;;;;;19.85;88.16;95918.44;5133454;27;20426;-54
2022/07/20 04:42:38;;;;;;;0.40;0.30;;;;;;;20.01;83.47;95922.25;5133645;27;20847;-54
2022/07/20 04:45:07;;;;;;;0.40;0.20;;;;;;;20.19;83.96;95921.19;5132978;27;20448;-54
2022/07/20 04:47:37;;;;;;;0.40;0.20;;;;;;;20.23;82.94;95914.13;5133370;27;20498;-54
2022/07/20 04:50:06;;;;;;;0.50;0.30;;;;;;;20.24;83.22;95914.88;5133495;27;21011;-53
2022/07/20 04:52:35;;;;;;;0.50;0.30;;;;;;;20.39;80.21;95917.09;5133758;27;20866;-54
2022/07/20 04:55:04;;;;;;;0.40;0.30;;;;;;;20.03;78.33;95833.97;5133377;27;20483;-54
2022/07/20 04:57:32;;;;;;;0.50;0.30;;;;;;;20.52;79.90;95912.66;5133524;27;20522;-53
2022/07/20 05:00:01;;;;;;;0.40;0.20;;;;;;;20.08;80.31;95914.53;5133218;27;20468;-53
2022/07/20 05:02:29;;;;;;;0.40;0.30;;;;;;;20.08;79.40;95917.22;5133201;27;20426;-53
2022/07/20 05:04:59;;;;;;;0.40;0.30;;;;;;;20.18;84.77;95921.50;5133424;27;20522;-53
2022/07/20 05:07:27;;;;;;;1.90;0.30;;;;;;;20.01;84.75;95916.88;5133515;27;20473;-53
2022/07/20 05:09:56;;;;;;;0.40;0.30;;;;;;;20.29;85.01;95908.56;5133090;27;20944;-54
2022/07/20 05:12:24;;;;;;;0.40;0.30;;;;;;;20.68;82.45;95914.56;5133327;27;20511;-54
2022/07/20 05:14:52;;;;;;;0.40;0.20;;;;;;;20.88;77.54;95911.22;5132910;27;21003;-53
2022/07/20 05:17:21;;;;;;;0.57;0.33;;;;;;;21.06;76.94;95914.72;5132833;27;20470;-53
2022/07/20 05:19:49;;;;;;;0.80;0.67;;;;;;;21.06;73.99;95903.13;5133305;27;20506;-53
2022/07/20 05:22:19;;;;;;;0.43;0.33;;;;;;;20.22;83.96;95911.69;5132968;27;20503;-53
2022/07/20 05:24:47;;;;;;;0.40;0.30;;;;;;;20.50;84.91;95914.91;5132792;27;21001;-53
2022/07/20 05:27:15;;;;;;;0.83;0.60;;;;;;;20.06;88.54;95924.81;5132784;27;20466;-53
2022/07/20 05:29:44;;;;;;;0.67;0.67;;;;;;;19.95;93.71;95923.53;5133078;27;20446;-53
2022/07/20 05:32:12;;;;;;;0.40;0.30;;;;;;;20.47;88.71;95916.31;5132832;27;20458;-53
2022/07/20 05:34:41;;;;;;;0.80;0.60;;;;;;;20.27;91.77;95917.75;5132929;27;20454;-52
2022/07/20 05:37:09;;;;;;;3.20;0.50;;;;;;;20.08;92.52;95917.22;5132712;27;20430;-52
2022/07/20 05:39:39;;;;;;;0.50;0.33;;;;;;;20.43;89.40;95915.38;5132610;27;20514;-51
2022/07/20 05:42:08;;;;;;;0.60;0.30;;;;;;;20.72;85.59;95917.44;5132837;27;20874;-51
2022/07/20 05:44:36;;;;;;;0.40;0.30;;;;;;;21.25;80.13;95863.88;5132983;28;20442;-50
2022/07/20 05:47:06;;;;;;;0.50;0.30;;;;;;;21.87;76.29;95907.28;5132590;28;20505;-51
2022/07/20 05:49:35;;;;;;;0.40;0.27;;;;;;;21.58;73.85;95849.81;5132874;28;20545;-51
2022/07/20 05:52:04;;;;;;;0.40;0.30;;;;;;;21.92;74.52;95909.78;5132769;28;20807;-51
2022/07/20 05:54:32;;;;;;;0.40;0.20;;;;;;;22.51;69.92;95907.00;5132812;28;20427;-51
2022/07/20 05:57:02;;;;;;;0.90;0.30;;;;;;;22.38;71.93;95916.16;5133211;27;20454;-51
2022/07/20 05:59:37;;;;;;;2.80;0.50;;;;;;;22.69;68.44;95911.94;5137040;27;20922;-50
2022/07/20 06:02:06;;;;;;;13.43;0.57;;;;;;;22.75;68.91;95909.84;5136564;27;20415;-51
2022/07/20 06:04:35;;;;;;;0.40;0.30;;;;;;;22.18;69.91;95906.94;5136721;27;20514;-51
2022/07/20 06:07:04;;;;;;;0.50;0.33;;;;;;;22.50;68.91;95906.22;5136566;27;20510;-51
2022/07/20 06:09:32;;;;;;;0.40;0.30;;;;;;;22.87;67.90;95911.81;5136591;27;20451;-50
2022/07/20 06:12:02;;;;;;;0.40;0.30;;;;;;;22.98;66.71;95904.84;5136338;27;20915;-51
2022/07/20 06:14:30;;;;;;;0.60;0.50;;;;;;;23.49;67.28;95907.03;5136502;27;21006;-50
2022/07/20 06:16:59;;;;;;;0.50;0.40;;;;;;;23.45;66.03;95906.13;5136192;27;20470;-49
2022/07/20 06:19:27;;;;;;;0.40;0.30;;;;;;;23.96;63.42;95894.63;5136288;27;20785;-50
2022/07/20 06:21:56;;;;;;;0.50;0.40;;;;;;;24.35;61.79;95901.25;5136323;27;20615;-50
2022/07/20 06:24:24;;;;;;;0.40;0.30;;;;;;;24.57;60.86;95895.31;5135725;27;20514;-50
2022/07/20 06:26:53;;;;;;;0.40;0.30;;;;;;;24.52;62.20;95886.63;5136352;27;20553;-50
2022/07/20 06:29:23;;;;;;;1.37;1.27;;;;;;;24.39;58.84;95898.63;5136537;27;20450;-50
2022/07/20 06:31:51;;;;;;;0.50;0.40;;;;;;;24.47;59.61;95895.78;5136040;27;20509;-51
2022/07/20 06:34:39;;;;;;;0.70;0.70;;;;;;;24.71;62.37;95886.78;5136026;27;20434;-54
2022/07/20 06:37:08;;;;;;;2.40;2.30;;;;;;;25.10;60.38;95888.66;5135728;27;20454;-50
2022/07/20 06:39:36;;;;;;;0.70;0.47;;;;;;;25.15;58.16;95880.25;5135504;27;20441;-51
2022/07/20 06:42:11;;;;;;;0.50;0.50;;;;;;;24.75;61.36;95876.81;5135886;27;20429;-51
2022/07/20 06:44:41;;;;;;;0.40;0.30;;;;;;;24.59;62.32;95876.00;5135872;27;20454;-51
2022/07/20 06:47:10;;;;;;;0.40;0.30;;;;;;;25.16;58.03;95868.28;5135672;27;20494;-51
2022/07/20 06:49:38;;;;;;;0.40;0.40;;;;;;;25.95;56.91;95860.94;5136002;27;20519;-49
2022/07/20 06:52:07;;;;;;;0.40;0.30;;;;;;;26.13;55.48;95810.53;5135907;27;20505;-49
2022/07/20 06:54:35;;;;;;;0.40;0.30;;;;;;;26.72;53.51;95866.44;5135686;27;20427;-50
2022/07/20 06:57:04;;;;;;;0.47;0.40;;;;;;;26.94;57.06;95871.22;5135570;27;20444;-50
2022/07/20 06:59:33;;;;;;;0.40;0.30;;;;;;;26.07;52.84;95860.81;5135694;27;20509;-49
2022/07/20 07:02:02;;;;;;;0.60;0.50;;;;;;;26.37;52.77;95866.53;5135474;27;20461;-49
2022/07/20 07:04:31;;;;;;;1.23;1.23;;;;;;;26.83;51.44;95862.03;5135709;27;20458;-50
2022/07/20 07:07:01;;;;;;;0.53;0.30;;;;;;;27.05;52.12;95855.84;5135444;27;20419;-50
2022/07/20 07:09:30;;;;;;;0.50;0.40;;;;;;;27.28;52.66;95853.13;5135403;27;20454;-50
2022/07/20 07:11:58;;;;;;;0.50;0.50;;;;;;;27.26;46.86;95736.47;5135462;27;20519;-57
2022/07/20 07:14:27;;;;;;;2.00;0.50;;;;;;;27.68;47.08;95837.91;5135112;27;20521;-58
2022/07/20 07:16:55;;;;;;;0.33;0.30;;;;;;;27.93;38.94;95834.78;5134897;27;20492;-58
2022/07/20 07:19:25;;;;;;;0.50;0.37;;;;;;;28.62;46.61;95842.38;5135481;27;20426;-58
2022/07/20 07:21:54;;;;;;;0.53;0.50;;;;;;;28.26;42.89;95841.09;5135076;27;21034;-58
2022/07/20 07:24:22;;;;;;;0.60;0.40;;;;;;;28.68;35.36;95832.72;5134974;27;20422;-58
2022/07/20 07:26:50;;;;;;;9.37;0.60;;;;;;;29.09;37.46;95832.75;5134837;27;20447;-58
2022/07/20 07:29:20;;;;;;;0.60;0.60;;;;;;;29.12;37.23;95835.50;5135122;27;20600;-58
2022/07/20 07:31:49;;;;;;;0.40;0.30;;;;;;;28.71;44.38;95825.72;5135349;27;20501;-58
2022/07/20 07:34:17;;;;;;;0.40;0.30;;;;;;;29.31;40.70;95820.88;5134878;27;20990;-59
2022/07/20 07:36:47;;;;;;;0.40;0.30;;;;;;;29.62;38.50;95822.31;5134803;27;20439;-59
2022/07/20 07:39:15;;;;;;;0.40;0.30;;;;;;;29.88;37.74;95820.19;5135139;27;20541;-59
2022/07/20 07:41:44;;;;;;;0.40;0.30;;;;;;;30.56;33.33;95824.09;5134732;27;20930;-59
2022/07/20 07:44:12;;;;;;;0.30;0.20;;;;;;;30.85;32.34;95817.53;5135013;27;20506;-59
2022/07/20 07:46:41;;;;;;;0.40;0.30;;;;;;;30.61;33.84;95816.28;5135081;27;20844;-62
2022/07/20 07:49:09;;;;;;;2.97;0.30;;;;;;;30.45;31.08;95785.75;5134620;27;21081;-59
2022/07/20 07:51:38;;;;;;;1.10;0.50;;;;;;;29.91;30.12;95808.50;5134594;27;20844;-59
2022/07/20 07:54:08;;;;;;;0.50;0.30;;;;;;;30.28;30.88;95804.78;5134900;27;20539;-59
2022/07/20 07:56:37;;;;;;;0.50;0.50;;;;;;;30.68;31.95;95802.66;5134533;27;20453;-58
2022/07/20 07:59:05;;;;;;;1.13;0.30;;;;;;;31.12;33.50;95805.09;5133894;27;20430;-58
2022/07/20 08:01:53;;;;;;;0.37;0.30;;;;;;;31.14;33.52;95799.25;5134027;27;20451;-58
2022/07/20 08:04:22;;;;;;;0.40;0.30;;;;;;;30.56;31.90;95690.78;5134329;27;20428;-58
2022/07/20 08:06:51;;;;;;;0.40;0.30;;;;;;;30.90;29.49;95798.03;5134227;27;20471;-58
2022/07/20 08:09:20;;;;;;;0.40;0.30;;;;;;;31.38;30.57;95782.81;5134337;27;20550;-58
2022/07/20 08:11:49;;;;;;;0.40;0.30;;;;;;;30.82;30.17;95722.50;5134480;27;20549;-58
2022/07/20 08:14:17;;;;;;;3.53;0.40;;;;;;;31.26;29.57;95791.44;5134273;27;20988;-58
2022/07/20 08:16:46;;;;;;;0.73;0.60;;;;;;;31.78;30.09;95789.06;5133956;27;20601;-55
2022/07/20 08:19:14;;;;;;;0.30;0.30;;;;;;;32.04;27.04;95785.94;5133642;27;20501;-57
2022/07/20 08:21:43;;;;;;;0.40;0.30;;;;;;;31.97;27.03;95775.75;5133682;27;20892;-56
2022/07/20 08:24:14;;;;;;;0.70;0.40;;;;;;;31.95;28.11;95771.84;5133990;27;20463;-57
2022/07/20 08:26:44;;;;;;;0.40;0.30;;;;;;;32.44;26.18;95768.16;5133162;27;20521;-57
2022/07/20 08:29:12;;;;;;;0.30;0.30;;;;;;;32.98;27.25;95762.00;5133591;27;20525;-56
2022/07/20 08:31:41;;;;;;;0.40;0.30;;;;;;;32.93;25.05;95758.91;5133723;27;20476;-56
2022/07/20 08:34:10;;;;;;;0.40;0.40;;;;;;;33.20;28.68;95768.94;5133975;27;20485;-57
2022/07/20 08:36:38;;;;;;;0.30;0.30;;;;;;;32.96;26.16;95767.13;5133697;27;20443;-57
2022/07/20 08:39:06;;;;;;;0.40;0.40;;;;;;;32.16;25.55;95766.31;5133623;27;20455;-57
2022/07/20 08:41:35;;;;;;;0.30;0.20;;;;;;;31.85;27.55;95759.69;5133558;27;20535;-57
2022/07/20 08:44:05;;;;;;;0.47;0.30;;;;;;;32.87;27.54;95755.00;5133395;27;20440;-57
2022/07/20 08:46:35;;;;;;;0.30;0.20;;;;;;;33.44;24.64;95747.94;5133418;27;20460;-57
2022/07/20 08:49:04;;;;;;;0.30;0.30;;;;;;;33.87;24.01;95748.34;5133688;27;20471;-57
2022/07/20 08:51:33;;;;;;;0.40;0.30;;;;;;;33.90;23.20;95746.75;5133252;27;20439;-57
2022/07/20 08:54:03;;;;;;;0.50;0.50;;;;;;;33.78;25.56;95745.28;5133320;27;20492;-56
2022/07/20 08:56:32;;;;;;;0.40;0.30;;;;;;;33.83;25.62;95742.88;5133542;27;20526;-57
2022/07/20 08:59:00;;;;;;;0.30;0.20;;;;;;;33.82;23.78;95737.78;5133633;27;20516;-56
2022/07/20 09:01:30;;;;;;;0.40;0.27;;;;;;;33.79;23.89;95739.41;5133419;27;20503;-57
2022/07/20 09:04:07;;;;;;;0.40;0.40;;;;;;;33.94;22.98;95712.50;5133524;27;20434;-57
2022/07/20 09:06:46;;;;;;;0.50;0.30;;;;;;;34.52;23.39;95727.16;5133008;27;20475;-57
2022/07/20 09:09:15;;;;;;;0.30;0.30;;;;;;;35.16;24.77;95725.09;5132784;27;21021;-57
2022/07/20 09:11:45;;;;;;;0.40;0.30;;;;;;;34.63;24.92;95720.34;5132627;27;20680;-57
2022/07/20 09:14:16;;;;;;;0.30;0.20;;;;;;;34.88;25.21;95695.19;5132889;27;20511;-56
2022/07/20 09:16:47;;;;;;;0.40;0.40;;;;;;;34.32;23.91;95719.56;5132533;27;20465;-57
2022/07/20 09:19:16;;;;;;;0.40;0.30;;;;;;;33.98;22.93;95707.75;5132718;27;20450;-57
2022/07/20 09:21:48;;;;;;;0.40;0.40;;;;;;;34.55;22.71;95712.59;5133117;27;20182;-56
2022/07/20 09:24:20;;;;;;;0.40;0.30;;;;;;;34.81;24.62;95698.81;5132900;27;20192;-56
2022/07/20 09:27:04;;;;;;;0.40;0.30;;;;;;;35.14;25.31;95701.91;5133050;27;20188;-56
2022/07/20 09:29:32;;;;;;;0.30;0.20;;;;;;;34.89;23.15;95703.03;5132572;27;20299;-57
2022/07/20 09:32:04;;;;;;;0.63;0.63;;;;;;;34.81;23.76;95698.06;5132527;27;20275;-56
2022/07/20 09:34:37;;;;;;;0.30;0.20;;;;;;;34.81;22.66;95709.84;5132928;27;20426;-56
2022/07/20 09:37:16;;;;;;;0.30;0.20;;;;;;;34.80;24.07;95702.78;5132519;27;20237;-57
2022/07/20 09:40:00;;;;;;;0.40;0.30;;;;;;;34.15;23.29;95698.56;5132915;27;20583;-57
2022/07/20 09:42:37;;;;;;;0.40;0.37;;;;;;;34.13;24.32;95695.41;5132841;27;20195;-57
2022/07/20 09:45:22;;;;;;;0.40;0.40;;;;;;;34.98;24.60;95695.03;5132241;27;20222;-57
2022/07/20 09:48:12;;;;;;;0.40;0.30;;;;;;;34.22;23.36;95689.41;5132722;28;20195;-57
2022/07/20 09:50:43;;;;;;;0.40;0.30;;;;;;;33.75;24.49;95680.88;5132410;28;20185;-57
2022/07/20 09:53:13;;;;;;;0.50;0.40;;;;;;;33.53;24.86;95676.78;5132453;28;20188;-57
2022/07/20 09:55:42;;;;;;;0.30;0.30;;;;;;;34.73;23.04;95680.88;5132390;28;20631;-57
2022/07/20 09:58:10;;;;;;;0.40;0.30;;;;;;;34.84;22.06;95689.75;5132383;28;20472;-56
2022/07/20 10:00:39;;;;;;;0.40;0.30;;;;;;;35.24;22.49;95676.16;5132271;28;20726;-56
2022/07/20 10:03:16;;;;;;;0.30;0.30;;;;;;;35.95;22.48;95679.16;5132290;28;20417;-56
2022/07/20 10:05:45;;;;;;;0.40;0.30;;;;;;;35.72;22.72;95673.72;5132385;28;20196;-56
2022/07/20 10:08:14;;;;;;;0.40;0.30;;;;;;;35.79;23.01;95670.06;5132477;28;20430;-56
2022/07/20 10:10:42;;;;;;;0.30;0.30;;;;;;;36.12;23.88;95669.81;5132210;28;20296;-56
2022/07/20 10:13:12;;;;;;;0.70;0.40;;;;;;;36.37;21.92;95658.22;5132552;28;20216;-56
2022/07/20 10:15:50;;;;;;;0.40;0.30;;;;;;;36.84;22.12;95658.75;5131892;28;20707;-56
2022/07/20 10:18:20;;;;;;;0.37;0.27;;;;;;;36.52;21.20;95655.97;5132435;28;20553;-56
2022/07/20 10:20:50;;;;;;;0.40;0.40;;;;;;;36.43;21.33;95644.69;5132061;28;20185;-56
2022/07/20 10:23:34;;;;;;;0.30;0.20;;;;;;;36.45;21.54;95645.03;5131924;28;20642;-56
2022/07/20 10:26:03;;;;;;;0.40;0.30;;;;;;;36.99;21.75;95642.66;5132461;28;20241;-56
2022/07/20 10:28:34;;;;;;;0.30;0.20;;;;;;;37.01;21.54;95635.50;5132414;28;20181;-56
2022/07/20 10:31:06;;;;;;;0.30;0.30;;;;;;;36.52;20.23;95642.94;5132515;28;20245;-56
2022/07/20 10:33:38;;;;;;;0.90;0.30;;;;;;;36.01;21.81;95644.41;5132432;28;20188;-51
2022/07/20 10:38:59;;;;;;;0.30;0.30;;;;;;;35.52;21.51;95642.56;5132303;28;20195;-52
2022/07/20 10:41:35;;;;;;;0.30;0.25;;;;;;;35.84;21.55;95636.47;5132167;28;20193;-51
2022/07/20 10:44:32;;;;;;;0.30;0.30;;;;;;;36.06;20.53;95638.38;5133205;27;20249;-51
2022/07/20 10:47:01;;;;;;;0.30;0.20;;;;;;;36.59;20.62;95625.41;5136001;27;20270;-51
2022/07/20 10:50:03;;;;;;;0.30;0.30;;;;;;;36.40;22.11;95629.78;5135578;27;20299;-51
2022/07/20 10:52:33;;;;;;;0.37;0.33;;;;;;;35.48;21.49;95590.25;5135793;27;20211;-51
2022/07/20 10:55:03;;;;;;;0.30;0.20;;;;;;;35.62;21.77;95636.09;5134663;27;20219;-51
2022/07/20 10:57:32;;;;;;;0.57;0.32;;;;;;;36.21;20.88;95631.34;5135636;27;20636;-51
2022/07/20 11:00:09;;;;;;;0.30;0.20;;;;;;;37.27;22.11;95617.03;5135496;27;20685;-51
2022/07/20 11:02:38;;;;;;;0.57;0.30;;;;;;;36.94;20.15;95621.81;5135716;27;20275;-51
2022/07/20 11:05:19;;;;;;;0.40;0.40;;;;;;;36.98;19.55;95619.75;5135550;27;20190;-51
2022/07/20 11:07:50;;;;;;;0.30;0.25;;;;;;;36.96;21.33;95621.41;5135511;27;20184;-52
2022/07/20 11:10:23;;;;;;;0.38;0.28;;;;;;;36.04;22.23;95618.72;5135272;27;20281;-50
2022/07/20 11:12:58;;;;;;;0.35;0.35;;;;;;;36.30;21.93;95619.75;5135330;27;20192;-50
2022/07/20 11:15:39;;;;;;;0.30;0.20;;;;;;;35.92;21.70;95594.50;5135226;27;20756;-51
2022/07/20 11:18:09;;;;;;;0.50;0.33;;;;;;;36.04;22.98;95617.94;5135336;27;20196;-51
2022/07/20 11:20:47;;;;;;;0.50;0.30;;;;;;;35.83;21.03;95583.25;5135261;27;20188;-51
2022/07/20 11:23:17;;;;;;;0.30;0.23;;;;;;;36.83;21.06;95607.47;5134859;27;20184;-54
2022/07/20 11:25:48;;;;;;;0.30;0.20;;;;;;;36.67;21.34;95596.41;5134788;27;20195;-52
2022/07/20 11:28:19;;;;;;;0.40;0.30;;;;;;;36.18;22.60;95607.34;5135099;27;20226;-51
2022/07/20 11:30:48;;;;;;;0.40;0.30;;;;;;;36.37;21.56;95599.47;5134924;27;20255;-51
2022/07/20 11:33:24;;;;;;;0.30;0.20;;;;;;;36.78;21.57;95596.94;5134490;27;20188;-51
2022/07/20 11:35:54;;;;;;;0.30;0.30;;;;;;;36.22;21.81;95601.78;5135251;27;20180;-51
2022/07/20 11:38:23;;;;;;;0.30;0.20;;;;;;;36.28;20.48;95597.31;5134911;27;20271;-51
2022/07/20 11:41:00;;;;;;;0.53;0.43;;;;;;;35.53;21.29;95550.38;5135063;27;20192;-51
2022/07/20 11:43:29;;;;;;;0.30;0.30;;;;;;;35.96;20.49;95597.97;5134603;27;20670;-51
2022/07/20 11:46:13;;;;;;;0.40;0.30;;;;;;;36.99;20.76;95582.59;5134887;27;20227;-51
2022/07/20 11:48:42;;;;;;;0.35;0.35;;;;;;;36.36;21.09;95597.94;5134969;27;20259;-51
2022/07/20 11:51:35;;;;;;;0.50;0.40;;;;;;;37.06;21.96;95589.97;5134443;27;20224;-51
2022/07/20 11:54:06;;;;;;;0.30;0.20;;;;;;;37.07;21.18;95589.50;5134140;27;20650;-51